sensor_id;sensor_type;location;lat;lon;timestamp;pressure;altitude;pressure_sealevel;temperature;humidity
3294;BME280;1659;51.470;6.770;2023-12-20T00:00:34;101348.91;;;7.49;100.00
3294;BME280;1659;51.470;6.770;2023-12-20T00:03:02;101351.50;;;7.47;100.00
3294;BME280;1659;51.470;6.770;2023-12-20T00:05:29;101346.25;;;7.46;100.00
3294;BME280;1659;51.470;6.770;2023-12-20T00:07:57;101362.03;;;7.43;100.00
3294;BME280;1659;51.470;6.770;2023-12-20T00:10:23;101361.13;;;7.37;100.00
3294;BME280;1659;51.470;6.770;2023-12-20T00:12:50;101357.59;;;7.32;100.00
3294;BME280;1659;51.470;6.770;2023-12-20T00:15:18;101369.84;;;7.26;100.00
3294;BME280;1659;51.470;6.770;2023-12-20T00:17:44;101367.16;;;7.19;100.00
3294;BME280;1659;51.470;6.770;2023-12-20T00:20:12;101364.53;;;7.15;100.00
3294;BME280;1659;51.470;6.770;2023-12-20T00:22:38;101379.41;;;7.11;100.00
3294;BME280;1659;51.470;6.770;2023-12-20T00:25:06;101366.25;;;7.07;100.00
3294;BME280;1659;51.470;6.770;2023-12-20T00:27:33;101379.34;;;7.02;100.00
3294;BME280;1659;51.470;6.770;2023-12-20T00:29:59;101380.22;;;6.99;100.00
3294;BME280;1659;51.470;6.770;2023-12-20T00:32:27;101378.44;;;6.98;100.00
3294;BME280;1659;51.470;6.770;2023-12-20T00:34:53;101381.06;;;6.98;100.00
3294;BME280;1659;51.470;6.770;2023-12-20T00:37:20;101383.69;;;6.98;100.00
3294;BME280;1659;51.470;6.770;2023-12-20T00:39:47;101382.84;;;6.99;100.00
3294;BME280;1659;51.470;6.770;2023-12-20T00:42:14;101382.84;;;6.99;100.00
3294;BME280;1659;51.470;6.770;2023-12-20T00:44:40;101396.00;;;7.03;100.00
3294;BME280;1659;51.470;6.770;2023-12-20T00:47:07;101396.88;;;7.03;100.00
3294;BME280;1659;51.470;6.770;2023-12-20T00:49:34;101392.50;;;7.04;100.00
3294;BME280;1659;51.470;6.770;2023-12-20T00:52:01;101391.63;;;7.03;100.00
3294;BME280;1659;51.470;6.770;2023-12-20T00:54:28;101391.63;;;7.02;100.00
3294;BME280;1659;51.470;6.770;2023-12-20T00:56:56;101395.09;;;7.00;100.00
3294;BME280;1659;51.470;6.770;2023-12-20T00:59:22;101396.81;;;6.97;100.00
3294;BME280;1659;51.470;6.770;2023-12-20T01:01:49;101395.94;;;6.95;100.00
3294;BME280;1659;51.470;6.770;2023-12-20T01:04:16;101404.72;;;6.94;100.00
3294;BME280;1659;51.470;6.770;2023-12-20T01:06:43;101401.16;;;6.92;100.00
3294;BME280;1659;51.470;6.770;2023-12-20T01:09:10;101402.94;;;6.91;100.00
3294;BME280;1659;51.470;6.770;2023-12-20T01:11:37;101401.19;;;6.90;100.00
3294;BME280;1659;51.470;6.770;2023-12-20T01:14:03;101405.53;;;6.88;100.00
3294;BME280;1659;51.470;6.770;2023-12-20T01:16:30;101403.78;;;6.86;100.00
3294;BME280;1659;51.470;6.770;2023-12-20T01:18:56;101408.16;;;6.85;100.00
3294;BME280;1659;51.470;6.770;2023-12-20T01:21:23;101407.25;;;6.85;100.00
3294;BME280;1659;51.470;6.770;2023-12-20T01:23:52;101412.53;;;6.86;100.00
3294;BME280;1659;51.470;6.770;2023-12-20T01:26:18;101416.91;;;6.86;100.00
3294;BME280;1659;51.470;6.770;2023-12-20T01:28:45;101418.66;;;6.88;100.00
3294;BME280;1659;51.470;6.770;2023-12-20T01:31:11;101410.78;;;6.88;100.00
3294;BME280;1659;51.470;6.770;2023-12-20T01:33:38;101419.56;;;6.89;100.00
3294;BME280;1659;51.470;6.770;2023-12-20T01:36:05;101422.19;;;6.87;100.00
3294;BME280;1659;51.470;6.770;2023-12-20T01:38:31;101420.41;;;6.86;100.00
3294;BME280;1659;51.470;6.770;2023-12-20T01:40:59;101421.28;;;6.82;100.00
3294;BME280;1659;51.470;6.770;2023-12-20T01:43:26;101412.44;;;6.74;100.00
3294;BME280;1659;51.470;6.770;2023-12-20T01:45:52;101407.13;;;6.65;100.00
3294;BME280;1659;51.470;6.770;2023-12-20T01:48:21;101411.41;;;6.55;100.00
3294;BME280;1659;51.470;6.770;2023-12-20T01:50:48;101406.13;;;6.47;100.00
3294;BME280;1659;51.470;6.770;2023-12-20T01:53:15;101403.41;;;6.39;100.00
3294;BME280;1659;51.470;6.770;2023-12-20T01:55:42;101414.75;;;6.34;100.00
3294;BME280;1659;51.470;6.770;2023-12-20T01:58:12;101418.22;;;6.30;100.00
3294;BME280;1659;51.470;6.770;2023-12-20T02:00:39;101421.66;;;6.27;100.00
3294;BME280;1659;51.470;6.770;2023-12-20T02:03:06;101418.16;;;6.27;100.00
3294;BME280;1659;51.470;6.770;2023-12-20T02:05:34;101414.69;;;6.28;100.00
3294;BME280;1659;51.470;6.770;2023-12-20T02:08:01;101412.91;;;6.25;100.00
3294;BME280;1659;51.470;6.770;2023-12-20T02:10:28;101411.13;;;6.21;100.00
3294;BME280;1659;51.470;6.770;2023-12-20T02:12:54;101407.59;;;6.17;100.00
3294;BME280;1659;51.470;6.770;2023-12-20T02:15:22;101419.78;;;6.12;100.00
3294;BME280;1659;51.470;6.770;2023-12-20T02:17:49;101425.03;;;6.11;100.00
3294;BME280;1659;51.470;6.770;2023-12-20T02:20:16;101422.38;;;6.09;100.00
3294;BME280;1659;51.470;6.770;2023-12-20T02:22:44;101423.28;;;6.11;100.00
3294;BME280;1659;51.470;6.770;2023-12-20T02:25:11;101428.50;;;6.10;100.00
3294;BME280;1659;51.470;6.770;2023-12-20T02:27:38;101418.00;;;6.07;100.00
3294;BME280;1659;51.470;6.770;2023-12-20T02:30:07;101417.94;;;6.02;100.00
3294;BME280;1659;51.470;6.770;2023-12-20T02:32:33;101417.00;;;5.97;100.00
3294;BME280;1659;51.470;6.770;2023-12-20T02:35:00;101419.53;;;5.91;100.00
3294;BME280;1659;51.470;6.770;2023-12-20T02:37:27;101425.59;;;5.86;100.00
3294;BME280;1659;51.470;6.770;2023-12-20T02:39:54;101425.56;;;5.83;100.00
3294;BME280;1659;51.470;6.770;2023-12-20T02:42:21;101425.56;;;5.83;100.00
3294;BME280;1659;51.470;6.770;2023-12-20T02:44:48;101422.94;;;5.82;100.00
3294;BME280;1659;51.470;6.770;2023-12-20T02:47:14;101430.78;;;5.80;100.00
3294;BME280;1659;51.470;6.770;2023-12-20T02:49:41;101419.38;;;5.75;100.00
3294;BME280;1659;51.470;6.770;2023-12-20T02:52:07;101421.06;;;5.72;100.00
3294;BME280;1659;51.470;6.770;2023-12-20T02:54:34;101428.03;;;5.68;100.00
3294;BME280;1659;51.470;6.770;2023-12-20T02:57:02;101434.97;;;5.63;100.00
3294;BME280;1659;51.470;6.770;2023-12-20T02:59:29;101436.66;;;5.59;100.00
3294;BME280;1659;51.470;6.770;2023-12-20T03:01:55;101446.22;;;5.57;100.00
3294;BME280;1659;51.470;6.770;2023-12-20T03:04:22;101441.78;;;5.52;100.00
3294;BME280;1659;51.470;6.770;2023-12-20T03:06:48;101427.78;;;5.49;100.00
3294;BME280;1659;51.470;6.770;2023-12-20T03:09:15;101432.16;;;5.49;100.00
3294;BME280;1659;51.470;6.770;2023-12-20T03:11:42;101426.94;;;5.54;100.00
3294;BME280;1659;51.470;6.770;2023-12-20T03:14:09;101437.50;;;5.58;100.00
3294;BME280;1659;51.470;6.770;2023-12-20T03:16:36;101434.97;;;5.63;100.00
3294;BME280;1659;51.470;6.770;2023-12-20T03:19:03;101428.84;;;5.65;100.00
3294;BME280;1659;51.470;6.770;2023-12-20T03:21:29;101431.53;;;5.68;100.00
3294;BME280;1659;51.470;6.770;2023-12-20T03:23:56;101428.91;;;5.68;100.00
3294;BME280;1659;51.470;6.770;2023-12-20T03:26:22;101422.75;;;5.66;100.00
3294;BME280;1659;51.470;6.770;2023-12-20T03:28:49;101414.91;;;5.66;100.00
3294;BME280;1659;51.470;6.770;2023-12-20T03:31:17;101412.28;;;5.68;100.00
3294;BME280;1659;51.470;6.770;2023-12-20T03:33:43;101413.19;;;5.70;100.00
3294;BME280;1659;51.470;6.770;2023-12-20T03:36:10;101409.66;;;5.68;100.00
3294;BME280;1659;51.470;6.770;2023-12-20T03:38:36;101415.75;;;5.65;100.00
3294;BME280;1659;51.470;6.770;2023-12-20T03:41:04;101415.69;;;5.61;100.00
3294;BME280;1659;51.470;6.770;2023-12-20T03:43:30;101415.66;;;5.58;100.00
3294;BME280;1659;51.470;6.770;2023-12-20T03:45:57;101415.63;;;5.55;100.00
3294;BME280;1659;51.470;6.770;2023-12-20T03:48:25;101409.47;;;5.51;100.00
3294;BME280;1659;51.470;6.770;2023-12-20T03:50:52;101416.41;;;5.47;100.00
3294;BME280;1659;51.470;6.770;2023-12-20T03:53:18;101415.50;;;5.44;100.00
3294;BME280;1659;51.470;6.770;2023-12-20T03:55:45;101420.72;;;5.42;100.00
3294;BME280;1659;51.470;6.770;2023-12-20T03:58:11;101411.94;;;5.39;100.00
3294;BME280;1659;51.470;6.770;2023-12-20T04:00:38;101402.25;;;5.36;100.00
3294;BME280;1659;51.470;6.770;2023-12-20T04:03:04;101406.63;;;5.34;100.00
3294;BME280;1659;51.470;6.770;2023-12-20T04:05:32;101396.13;;;5.34;100.00
3294;BME280;1659;51.470;6.770;2023-12-20T04:07:59;101388.25;;;5.33;100.00
3294;BME280;1659;51.470;6.770;2023-12-20T04:10:26;101389.13;;;5.32;100.00
3294;BME280;1659;51.470;6.770;2023-12-20T04:12:53;101401.31;;;5.31;100.00
3294;BME280;1659;51.470;6.770;2023-12-20T04:15:20;101407.47;;;5.35;100.00
3294;BME280;1659;51.470;6.770;2023-12-20T04:17:46;101413.66;;;5.37;100.00
3294;BME280;1659;51.470;6.770;2023-12-20T04:20:13;101402.25;;;5.36;100.00
3294;BME280;1659;51.470;6.770;2023-12-20T04:22:41;101404.97;;;5.41;100.00
3294;BME280;1659;51.470;6.770;2023-12-20T04:25:08;101399.78;;;5.45;100.00
3294;BME280;1659;51.470;6.770;2023-12-20T04:27:35;101405.91;;;5.47;100.00
3294;BME280;1659;51.470;6.770;2023-12-20T04:30:01;101407.66;;;5.47;100.00
3294;BME280;1659;51.470;6.770;2023-12-20T04:32:28;101413.84;;;5.51;100.00
3294;BME280;1659;51.470;6.770;2023-12-20T04:34:54;101425.22;;;5.54;100.00
3294;BME280;1659;51.470;6.770;2023-12-20T04:37:20;101422.66;;;5.59;100.00
3294;BME280;1659;51.470;6.770;2023-12-20T04:39:48;101414.81;;;5.62;100.00
3294;BME280;1659;51.470;6.770;2023-12-20T04:42:15;101417.50;;;5.65;100.00
3294;BME280;1659;51.470;6.770;2023-12-20T04:44:41;101412.28;;;5.68;100.00
3294;BME280;1659;51.470;6.770;2023-12-20T04:47:09;101410.56;;;5.70;100.00
3294;BME280;1659;51.470;6.770;2023-12-20T04:49:35;101414.06;;;5.71;100.00
3294;BME280;1659;51.470;6.770;2023-12-20T04:52:02;101422.78;;;5.70;100.00
3294;BME280;1659;51.470;6.770;2023-12-20T04:54:29;101417.53;;;5.70;100.00
3294;BME280;1659;51.470;6.770;2023-12-20T04:56:57;101421.91;;;5.69;100.00
3294;BME280;1659;51.470;6.770;2023-12-20T04:59:23;101412.28;;;5.68;100.00
3294;BME280;1659;51.470;6.770;2023-12-20T05:01:50;101408.72;;;5.63;100.00
3294;BME280;1659;51.470;6.770;2023-12-20T05:04:17;101414.75;;;5.57;100.00
3294;BME280;1659;51.470;6.770;2023-12-20T05:06:43;101417.31;;;5.51;100.00
3294;BME280;1659;51.470;6.770;2023-12-20T05:09:10;101414.59;;;5.45;100.00
3294;BME280;1659;51.470;6.770;2023-12-20T05:11:36;101411.94;;;5.39;100.00
3294;BME280;1659;51.470;6.770;2023-12-20T05:14:04;101409.28;;;5.37;100.00
3294;BME280;1659;51.470;6.770;2023-12-20T05:16:31;101417.13;;;5.36;100.00
3294;BME280;1659;51.470;6.770;2023-12-20T05:18:57;101411.00;;;5.35;100.00
3294;BME280;1659;51.470;6.770;2023-12-20T05:21:26;101417.13;;;5.36;100.00
3294;BME280;1659;51.470;6.770;2023-12-20T05:23:52;101408.44;;;5.38;100.00
3294;BME280;1659;51.470;6.770;2023-12-20T05:26:19;101410.19;;;5.41;100.00
3294;BME280;1659;51.470;6.770;2023-12-20T05:28:45;101406.72;;;5.43;100.00
3294;BME280;1659;51.470;6.770;2023-12-20T05:31:13;101404.16;;;5.46;100.00
3294;BME280;1659;51.470;6.770;2023-12-20T05:33:40;101400.69;;;5.47;100.00
3294;BME280;1659;51.470;6.770;2023-12-20T05:36:06;101403.34;;;5.51;100.00
3294;BME280;1659;51.470;6.770;2023-12-20T05:38:36;101400.72;;;5.52;100.00
3294;BME280;1659;51.470;6.770;2023-12-20T05:41:03;101394.66;;;5.55;100.00
3294;BME280;1659;51.470;6.770;2023-12-20T05:43:29;101388.53;;;5.54;100.00
3294;BME280;1659;51.470;6.770;2023-12-20T05:45:56;101389.44;;;5.58;100.00
3294;BME280;1659;51.470;6.770;2023-12-20T05:48:24;101387.69;;;5.58;100.00
3294;BME280;1659;51.470;6.770;2023-12-20T05:50:51;101391.22;;;5.60;100.00
3294;BME280;1659;51.470;6.770;2023-12-20T05:53:17;101380.72;;;5.60;100.00
3294;BME280;1659;51.470;6.770;2023-12-20T05:55:44;101392.09;;;5.62;100.00
3294;BME280;1659;51.470;6.770;2023-12-20T05:58:10;101389.47;;;5.62;100.00
3294;BME280;1659;51.470;6.770;2023-12-20T06:00:38;101402.63;;;5.64;100.00
3294;BME280;1659;51.470;6.770;2023-12-20T06:03:04;101394.75;;;5.64;100.00
3294;BME280;1659;51.470;6.770;2023-12-20T06:05:32;101405.22;;;5.64;100.00
3294;BME280;1659;51.470;6.770;2023-12-20T06:07:59;101400.88;;;5.66;100.00
3294;BME280;1659;51.470;6.770;2023-12-20T06:10:28;101400.91;;;5.67;100.00
3294;BME280;1659;51.470;6.770;2023-12-20T06:12:54;101402.69;;;5.68;100.00
3294;BME280;1659;51.470;6.770;2023-12-20T06:15:21;101407.94;;;5.70;100.00
3294;BME280;1659;51.470;6.770;2023-12-20T06:17:48;101400.97;;;5.72;100.00
3294;BME280;1659;51.470;6.770;2023-12-20T06:20:15;101403.59;;;5.72;100.00
3294;BME280;1659;51.470;6.770;2023-12-20T06:22:43;101417.59;;;5.74;100.00
3294;BME280;1659;51.470;6.770;2023-12-20T06:25:10;101407.97;;;5.75;100.00
3294;BME280;1659;51.470;6.770;2023-12-20T06:27:37;101411.53;;;5.77;100.00
3294;BME280;1659;51.470;6.770;2023-12-20T06:30:04;101411.50;;;5.78;100.00
3294;BME280;1659;51.470;6.770;2023-12-20T06:32:31;101410.66;;;5.79;100.00
3294;BME280;1659;51.470;6.770;2023-12-20T06:34:59;101414.16;;;5.81;100.00
3294;BME280;1659;51.470;6.770;2023-12-20T06:37:26;101394.97;;;5.84;100.00
3294;BME280;1659;51.470;6.770;2023-12-20T06:39:54;101401.16;;;5.88;100.00
3294;BME280;1659;51.470;6.770;2023-12-20T06:42:21;101392.38;;;5.89;100.00
3294;BME280;1659;51.470;6.770;2023-12-20T06:44:48;101395.03;;;5.90;100.00
3294;BME280;1659;51.470;6.770;2023-12-20T06:47:14;101398.56;;;5.94;100.00
3294;BME280;1659;51.470;6.770;2023-12-20T06:49:41;101409.13;;;5.97;100.00
3294;BME280;1659;51.470;6.770;2023-12-20T06:52:07;101406.53;;;5.98;100.00
3294;BME280;1659;51.470;6.770;2023-12-20T06:54:34;101405.69;;;5.99;100.00
3294;BME280;1659;51.470;6.770;2023-12-20T06:57:02;101403.94;;;6.01;100.00
3294;BME280;1659;51.470;6.770;2023-12-20T06:59:29;101410.09;;;6.05;100.00
3294;BME280;1659;51.470;6.770;2023-12-20T07:01:56;101400.50;;;6.07;100.00
3294;BME280;1659;51.470;6.770;2023-12-20T07:04:23;101404.00;;;6.09;100.00
3294;BME280;1659;51.470;6.770;2023-12-20T07:06:49;101395.31;;;6.12;100.00
3294;BME280;1659;51.470;6.770;2023-12-20T07:09:17;101397.91;;;6.13;100.00
3294;BME280;1659;51.470;6.770;2023-12-20T07:11:43;101390.97;;;6.15;100.00
3294;BME280;1659;51.470;6.770;2023-12-20T07:14:11;101379.59;;;6.16;100.00
3294;BME280;1659;51.470;6.770;2023-12-20T07:16:38;101381.34;;;6.17;100.00
3294;BME280;1659;51.470;6.770;2023-12-20T07:19:04;101378.75;;;6.20;100.00
3294;BME280;1659;51.470;6.770;2023-12-20T07:21:31;101392.78;;;6.22;100.00
3294;BME280;1659;51.470;6.770;2023-12-20T07:23:57;101391.88;;;6.23;100.00
3294;BME280;1659;51.470;6.770;2023-12-20T07:26:24;101388.44;;;6.26;100.00
3294;BME280;1659;51.470;6.770;2023-12-20T07:28:51;101396.34;;;6.29;100.00
3294;BME280;1659;51.470;6.770;2023-12-20T07:31:19;101396.31;;;6.31;100.00
3294;BME280;1659;51.470;6.770;2023-12-20T07:33:45;101397.25;;;6.33;100.00
3294;BME280;1659;51.470;6.770;2023-12-20T07:36:12;101385.00;;;6.35;100.00
3294;BME280;1659;51.470;6.770;2023-12-20T07:38:39;101392.91;;;6.36;100.00
3294;BME280;1659;51.470;6.770;2023-12-20T07:41:09;101390.28;;;6.38;100.00
3294;BME280;1659;51.470;6.770;2023-12-20T07:43:35;101398.16;;;6.39;100.00
3294;BME280;1659;51.470;6.770;2023-12-20T07:46:05;101390.31;;;6.42;100.00
3294;BME280;1659;51.470;6.770;2023-12-20T07:48:34;101387.69;;;6.42;100.00
3294;BME280;1659;51.470;6.770;2023-12-20T07:51:01;101396.47;;;6.43;100.00
3294;BME280;1659;51.470;6.770;2023-12-20T07:53:28;101396.44;;;6.45;100.00
3294;BME280;1659;51.470;6.770;2023-12-20T07:55:55;101399.97;;;6.45;100.00
3294;BME280;1659;51.470;6.770;2023-12-20T07:58:21;101413.09;;;6.48;100.00
3294;BME280;1659;51.470;6.770;2023-12-20T08:00:48;101399.97;;;6.48;100.00
3294;BME280;1659;51.470;6.770;2023-12-20T08:03:15;101383.38;;;6.49;100.00
3294;BME280;1659;51.470;6.770;2023-12-20T08:05:43;101381.63;;;6.50;100.00
3294;BME280;1659;51.470;6.770;2023-12-20T08:08:09;101391.25;;;6.51;100.00
3294;BME280;1659;51.470;6.770;2023-12-20T08:10:36;101387.78;;;6.52;100.00
3294;BME280;1659;51.470;6.770;2023-12-20T08:13:02;101385.16;;;6.52;100.00
3294;BME280;1659;51.470;6.770;2023-12-20T08:15:29;101399.16;;;6.54;100.00
3294;BME280;1659;51.470;6.770;2023-12-20T08:17:55;101401.81;;;6.55;100.00
3294;BME280;1659;51.470;6.770;2023-12-20T08:20:22;101397.47;;;6.59;100.00
3294;BME280;1659;51.470;6.770;2023-12-20T08:22:50;101393.09;;;6.59;100.00
3294;BME280;1659;51.470;6.770;2023-12-20T08:25:16;101389.59;;;6.59;100.00
3294;BME280;1659;51.470;6.770;2023-12-20T08:27:43;101386.94;;;6.57;100.00
3294;BME280;1659;51.470;6.770;2023-12-20T08:30:10;101389.59;;;6.59;100.00
3294;BME280;1659;51.470;6.770;2023-12-20T08:32:37;101397.47;;;6.60;100.00
3294;BME280;1659;51.470;6.770;2023-12-20T08:35:05;101403.59;;;6.59;100.00
3294;BME280;1659;51.470;6.770;2023-12-20T08:37:31;101402.72;;;6.60;100.00
3294;BME280;1659;51.470;6.770;2023-12-20T08:39:59;101399.22;;;6.61;100.00
3294;BME280;1659;51.470;6.770;2023-12-20T08:42:26;101403.63;;;6.63;100.00
3294;BME280;1659;51.470;6.770;2023-12-20T08:44:56;101397.47;;;6.64;100.00
3294;BME280;1659;51.470;6.770;2023-12-20T08:47:23;101401.00;;;6.66;100.00
3294;BME280;1659;51.470;6.770;2023-12-20T08:49:49;101397.50;;;6.67;100.00
3294;BME280;1659;51.470;6.770;2023-12-20T08:52:16;101409.78;;;6.68;100.00
3294;BME280;1659;51.470;6.770;2023-12-20T08:54:42;101399.28;;;6.68;100.00
3294;BME280;1659;51.470;6.770;2023-12-20T08:57:10;101403.66;;;6.69;100.00
3294;BME280;1659;51.470;6.770;2023-12-20T08:59:37;101397.56;;;6.71;100.00
3294;BME280;1659;51.470;6.770;2023-12-20T09:02:04;101396.66;;;6.72;100.00
3294;BME280;1659;51.470;6.770;2023-12-20T09:04:30;101405.44;;;6.73;100.00
3294;BME280;1659;51.470;6.770;2023-12-20T09:06:59;101401.91;;;6.72;100.00
3294;BME280;1659;51.470;6.770;2023-12-20T09:09:26;101398.41;;;6.70;100.00
3294;BME280;1659;51.470;6.770;2023-12-20T09:11:53;101387.03;;;6.70;100.00
3294;BME280;1659;51.470;6.770;2023-12-20T09:14:20;101386.16;;;6.69;100.00
3294;BME280;1659;51.470;6.770;2023-12-20T09:16:47;101391.41;;;6.69;100.00
3294;BME280;1659;51.470;6.770;2023-12-20T09:19:18;101386.16;;;6.68;100.00
3294;BME280;1659;51.470;6.770;2023-12-20T09:21:44;101384.38;;;6.65;100.00
3294;BME280;1659;51.470;6.770;2023-12-20T09:24:11;101387.00;;;6.65;100.00
3294;BME280;1659;51.470;6.770;2023-12-20T09:26:38;101390.47;;;6.66;100.00
3294;BME280;1659;51.470;6.770;2023-12-20T09:29:05;101387.00;;;6.67;100.00
3294;BME280;1659;51.470;6.770;2023-12-20T09:31:36;101378.28;;;6.68;100.00
3294;BME280;1659;51.470;6.770;2023-12-20T09:34:02;101378.25;;;6.71;100.00
3294;BME280;1659;51.470;6.770;2023-12-20T09:36:29;101376.53;;;6.71;100.00
3294;BME280;1659;51.470;6.770;2023-12-20T09:38:56;101376.56;;;6.73;100.00
3294;BME280;1659;51.470;6.770;2023-12-20T09:41:24;101379.19;;;6.73;100.00
3294;BME280;1659;51.470;6.770;2023-12-20T09:43:52;101380.06;;;6.75;100.00
3294;BME280;1659;51.470;6.770;2023-12-20T09:46:23;101384.44;;;6.77;100.00
3294;BME280;1659;51.470;6.770;2023-12-20T09:48:52;101380.09;;;6.78;100.00
3294;BME280;1659;51.470;6.770;2023-12-20T09:51:19;101385.34;;;6.81;100.00
3294;BME280;1659;51.470;6.770;2023-12-20T09:53:47;101395.84;;;6.81;100.00
3294;BME280;1659;51.470;6.770;2023-12-20T09:56:15;101387.13;;;6.84;100.00
3294;BME280;1659;51.470;6.770;2023-12-20T09:58:41;101389.78;;;6.85;100.00
3294;BME280;1659;51.470;6.770;2023-12-20T10:01:08;101378.38;;;6.86;100.00
3294;BME280;1659;51.470;6.770;2023-12-20T10:03:35;101377.53;;;6.89;100.00
3294;BME280;1659;51.470;6.770;2023-12-20T10:06:06;101383.66;;;6.91;100.00
3294;BME280;1659;51.470;6.770;2023-12-20T10:08:33;101374.91;;;6.92;100.00
3294;BME280;1659;51.470;6.770;2023-12-20T10:10:59;101388.06;;;6.93;100.00
3294;BME280;1659;51.470;6.770;2023-12-20T10:13:28;101384.56;;;6.94;100.00
3294;BME280;1659;51.470;6.770;2023-12-20T10:15:55;101388.97;;;6.98;100.00
3294;BME280;1659;51.470;6.770;2023-12-20T10:18:22;101382.88;;;7.03;100.00
3294;BME280;1659;51.470;6.770;2023-12-20T10:20:49;101371.50;;;7.07;100.00
3294;BME280;1659;51.470;6.770;2023-12-20T10:23:17;101370.63;;;7.09;100.00
3294;BME280;1659;51.470;6.770;2023-12-20T10:25:55;101360.09;;;7.09;100.00
3294;BME280;1659;51.470;6.770;2023-12-20T10:28:22;101349.63;;;7.12;100.00
3294;BME280;1659;51.470;6.770;2023-12-20T10:30:52;101350.53;;;7.17;100.00
3294;BME280;1659;51.470;6.770;2023-12-20T10:33:24;101358.44;;;7.22;100.00
3294;BME280;1659;51.470;6.770;2023-12-20T10:35:51;101367.19;;;7.24;100.00
3294;BME280;1659;51.470;6.770;2023-12-20T10:38:19;101359.31;;;7.23;100.00
3294;BME280;1659;51.470;6.770;2023-12-20T10:40:47;101363.69;;;7.22;100.00
3294;BME280;1659;51.470;6.770;2023-12-20T10:43:15;101354.03;;;7.21;100.00
3294;BME280;1659;51.470;6.770;2023-12-20T10:45:42;101345.28;;;7.21;100.00
3294;BME280;1659;51.470;6.770;2023-12-20T10:48:10;101348.81;;;7.24;100.00
3294;BME280;1659;51.470;6.770;2023-12-20T10:50:38;101365.47;;;7.28;100.00
3294;BME280;1659;51.470;6.770;2023-12-20T10:53:06;101345.31;;;7.31;100.00
3294;BME280;1659;51.470;6.770;2023-12-20T10:55:34;101353.22;;;7.33;100.00
3294;BME280;1659;51.470;6.770;2023-12-20T10:58:02;101357.59;;;7.32;100.00
3294;BME280;1659;51.470;6.770;2023-12-20T11:00:31;101362.00;;;7.35;100.00
3294;BME280;1659;51.470;6.770;2023-12-20T11:03:00;101359.38;;;7.36;100.00
3294;BME280;1659;51.470;6.770;2023-12-20T11:05:31;101358.50;;;7.36;100.00
3294;BME280;1659;51.470;6.770;2023-12-20T11:08:02;101365.47;;;7.35;100.00
3294;BME280;1659;51.470;6.770;2023-12-20T11:10:31;101351.47;;;7.33;100.00
3294;BME280;1659;51.470;6.770;2023-12-20T11:13:08;101354.97;;;7.32;100.00
3294;BME280;1659;51.470;6.770;2023-12-20T11:15:37;101347.09;;;7.32;100.00
3294;BME280;1659;51.470;6.770;2023-12-20T11:18:04;101343.56;;;7.33;100.00
3294;BME280;1659;51.470;6.770;2023-12-20T11:20:36;101354.09;;;7.35;100.00
3294;BME280;1659;51.470;6.770;2023-12-20T11:23:03;101345.34;;;7.34;100.00
3294;BME280;1659;51.470;6.770;2023-12-20T11:25:45;101340.09;;;7.36;100.00
3294;BME280;1659;51.470;6.770;2023-12-20T11:28:13;101334.84;;;7.37;100.00
3294;BME280;1659;51.470;6.770;2023-12-20T11:30:41;101337.47;;;7.37;100.00
3294;BME280;1659;51.470;6.770;2023-12-20T11:33:08;101333.09;;;7.40;100.00
3294;BME280;1659;51.470;6.770;2023-12-20T11:35:35;101323.47;;;7.45;100.00
3294;BME280;1659;51.470;6.770;2023-12-20T11:38:02;101319.09;;;7.45;100.00
3294;BME280;1659;51.470;6.770;2023-12-20T11:40:33;101325.22;;;7.46;100.00
3294;BME280;1659;51.470;6.770;2023-12-20T11:43:01;101318.19;;;7.48;100.00
3294;BME280;1659;51.470;6.770;2023-12-20T11:45:29;101317.34;;;7.49;100.00
3294;BME280;1659;51.470;6.770;2023-12-20T11:47:58;101324.34;;;7.47;100.00
3294;BME280;1659;51.470;6.770;2023-12-20T11:50:25;101313.81;;;7.42;100.00
3294;BME280;1659;51.470;6.770;2023-12-20T11:52:52;101318.19;;;7.38;100.00
3294;BME280;1659;51.470;6.770;2023-12-20T11:55:20;101320.81;;;7.38;100.00
3294;BME280;1659;51.470;6.770;2023-12-20T11:57:47;101312.91;;;7.37;100.00
3294;BME280;1659;51.470;6.770;2023-12-20T12:00:14;101314.69;;;7.38;100.00
3294;BME280;1659;51.470;6.770;2023-12-20T12:02:42;101305.91;;;7.36;100.00
3294;BME280;1659;51.470;6.770;2023-12-20T12:05:09;101309.41;;;7.38;100.00
3294;BME280;1659;51.470;6.770;2023-12-20T12:07:36;101305.91;;;7.39;100.00
3294;BME280;1659;51.470;6.770;2023-12-20T12:10:03;101301.56;;;7.43;100.00
3294;BME280;1659;51.470;6.770;2023-12-20T12:12:29;101307.69;;;7.45;100.00
3294;BME280;1659;51.470;6.770;2023-12-20T12:14:57;101298.03;;;7.45;100.00
3294;BME280;1659;51.470;6.770;2023-12-20T12:17:24;101294.53;;;7.48;100.00
3294;BME280;1659;51.470;6.770;2023-12-20T12:20:02;101289.28;;;7.48;100.00
3294;BME280;1659;51.470;6.770;2023-12-20T12:22:28;101280.53;;;7.50;100.00
3294;BME280;1659;51.470;6.770;2023-12-20T12:24:59;101298.94;;;7.53;100.00
3294;BME280;1659;51.470;6.770;2023-12-20T12:27:27;101296.31;;;7.55;100.00
3294;BME280;1659;51.470;6.770;2023-12-20T12:30:01;101285.78;;;7.58;100.00
3294;BME280;1659;51.470;6.770;2023-12-20T12:32:29;101296.31;;;7.63;100.00
3294;BME280;1659;51.470;6.770;2023-12-20T12:34:57;101297.22;;;7.75;100.00
3294;BME280;1659;51.470;6.770;2023-12-20T12:37:23;101293.72;;;7.75;100.00
3294;BME280;1659;51.470;6.770;2023-12-20T12:39:53;101284.94;;;7.73;100.00
3294;BME280;1659;51.470;6.770;2023-12-20T12:42:19;101276.19;;;7.71;100.00
3294;BME280;1659;51.470;6.770;2023-12-20T12:44:47;101277.03;;;7.68;100.00
3294;BME280;1659;51.470;6.770;2023-12-20T12:47:13;101269.13;;;7.65;100.00
3294;BME280;1659;51.470;6.770;2023-12-20T12:49:40;101268.28;;;7.60;100.00
3294;BME280;1659;51.470;6.770;2023-12-20T12:52:08;101274.41;;;7.56;100.00
3294;BME280;1659;51.470;6.770;2023-12-20T12:54:35;101267.38;;;7.52;100.00
3294;BME280;1659;51.470;6.770;2023-12-20T12:57:01;101275.25;;;7.50;100.00
3294;BME280;1659;51.470;6.770;2023-12-20T12:59:28;101265.59;;;7.48;100.00
3294;BME280;1659;51.470;6.770;2023-12-20T13:01:55;101265.63;;;7.46;100.00
3294;BME280;1659;51.470;6.770;2023-12-20T13:04:22;101259.47;;;7.43;100.00
3294;BME280;1659;51.470;6.770;2023-12-20T13:06:48;101260.34;;;7.40;100.00
3294;BME280;1659;51.470;6.770;2023-12-20T13:09:16;101262.97;;;7.38;100.00